createdAt,value
2023-05-13T00:00:44.857Z,9
2023-05-13T00:01:51.857Z,9
2023-05-13T00:03:04.063Z,9
2023-05-13T00:04:13.916Z,8
2023-05-13T00:05:20.828Z,9
2023-05-13T00:06:30.524Z,8
2023-05-13T00:07:37.513Z,8
2023-05-13T00:08:44.465Z,8
2023-05-13T00:09:51.511Z,8
2023-05-13T00:10:59.211Z,7
2023-05-13T00:12:06.211Z,7
2023-05-13T00:13:13.137Z,7
2023-05-13T00:14:23.083Z,8
2023-05-13T00:15:30.134Z,8
2023-05-13T00:16:37.034Z,7
2023-05-13T00:17:49.573Z,7
2023-05-13T00:18:56.544Z,8
2023-05-13T00:20:03.391Z,8
2023-05-13T00:21:15.576Z,8
2023-05-13T00:22:31.763Z,8
2023-05-13T00:23:38.757Z,8
2023-05-13T00:24:50.955Z,8
2023-05-13T00:25:59.067Z,8
2023-05-13T00:27:10.854Z,8
2023-05-13T00:28:17.981Z,9
2023-05-13T00:29:24.917Z,8
2023-05-13T00:30:32.274Z,9
2023-05-13T00:31:39.274Z,8
2023-05-13T00:33:04.188Z,8
2023-05-13T00:34:13.927Z,9
2023-05-13T00:35:23.851Z,9
2023-05-13T00:36:30.799Z,9
2023-05-13T00:37:40.821Z,9
2023-05-13T00:38:50.414Z,9
2023-05-13T00:39:57.628Z,9
2023-05-13T00:41:04.857Z,9
2023-05-13T00:42:15.066Z,9
2023-05-13T00:43:22.117Z,8
2023-05-13T00:44:29.798Z,9
2023-05-13T00:45:36.863Z,8
2023-05-13T00:46:43.813Z,9
2023-05-13T00:47:51.095Z,9
2023-05-13T00:48:58.340Z,9
2023-05-13T00:50:05.873Z,9
2023-05-13T00:51:13.218Z,9
2023-05-13T00:52:21.410Z,9
2023-05-13T00:53:28.950Z,9
2023-05-13T00:54:36.116Z,8
2023-05-13T00:55:43.101Z,10
2023-05-13T00:56:53.033Z,9
2023-05-13T00:58:00.044Z,9
2023-05-13T00:59:07.029Z,8
2023-05-13T01:00:13.987Z,9
2023-05-13T01:01:29.127Z,8
2023-05-13T01:02:47.096Z,8
2023-05-13T01:03:53.977Z,10
2023-05-13T01:05:14.156Z,10
2023-05-13T01:06:26.428Z,9
2023-05-13T01:07:39.513Z,9
2023-05-13T01:08:56.597Z,8
2023-05-13T01:10:06.561Z,9
2023-05-13T01:11:18.587Z,9
2023-05-13T01:12:28.329Z,9
2023-05-13T01:13:43.556Z,9
2023-05-13T01:14:52.696Z,9
2023-05-13T01:16:06.993Z,10
2023-05-13T01:17:27.144Z,9
2023-05-13T01:18:40.261Z,9
2023-05-13T01:19:49.778Z,9
2023-05-13T01:20:57.648Z,9
2023-05-13T01:22:06.791Z,9
2023-05-13T01:23:16.756Z,9
2023-05-13T01:24:25.902Z,10
2023-05-13T01:25:46.640Z,10
2023-05-13T01:27:16.921Z,9
2023-05-13T01:28:24.620Z,9
2023-05-13T01:29:31.671Z,10
2023-05-13T01:30:39.420Z,9
2023-05-13T01:31:46.506Z,9
2023-05-13T01:32:53.326Z,9
2023-05-13T01:34:03.228Z,9
2023-05-13T01:35:10.202Z,9
2023-05-13T01:36:17.795Z,9
2023-05-13T01:37:35.851Z,9
2023-05-13T01:38:43.079Z,9
2023-05-13T01:39:49.992Z,9
2023-05-13T01:40:57.126Z,9
2023-05-13T01:42:04.285Z,8
2023-05-13T01:43:11.184Z,8
2023-05-13T01:44:18.169Z,8
2023-05-13T01:45:36.512Z,7
2023-05-13T01:46:46.807Z,9
2023-05-13T01:47:56.445Z,8
2023-05-13T01:49:03.944Z,8
2023-05-13T01:50:10.852Z,8
2023-05-13T01:51:17.808Z,8
2023-05-13T01:52:25.425Z,8
2023-05-13T01:53:32.656Z,8
2023-05-13T01:54:46.557Z,8
2023-05-13T01:55:55.461Z,8
2023-05-13T01:57:02.485Z,8
2023-05-13T01:58:12.325Z,8
2023-05-13T01:59:21.927Z,9
2023-05-13T02:00:28.975Z,9
2023-05-13T02:01:39.140Z,9
2023-05-13T02:02:46.613Z,9
2023-05-13T02:03:53.579Z,9
2023-05-13T02:05:00.536Z,9
2023-05-13T02:06:07.503Z,9
2023-05-13T02:07:15.093Z,9
2023-05-13T02:08:25.231Z,9
2023-05-13T02:09:32.303Z,9
2023-05-13T02:10:42.374Z,9
2023-05-13T02:11:49.936Z,9
2023-05-13T02:12:56.833Z,9
2023-05-13T02:14:04.073Z,9
2023-05-13T02:15:10.986Z,10
2023-05-13T02:16:18.177Z,10
2023-05-13T02:17:25.287Z,9
2023-05-13T02:18:32.110Z,9
2023-05-13T02:19:42.021Z,10
2023-05-13T02:20:52.073Z,9
2023-05-13T02:22:05.736Z,9
2023-05-13T02:23:12.707Z,9
2023-05-13T02:24:19.780Z,9
2023-05-13T02:25:26.702Z,10
2023-05-13T02:26:35.156Z,9
2023-05-13T02:27:44.637Z,9
2023-05-13T02:28:52.433Z,10
2023-05-13T02:30:03.648Z,9
2023-05-13T02:31:16.725Z,9
2023-05-13T02:32:36.642Z,10
2023-05-13T02:33:44.355Z,9
2023-05-13T02:34:51.400Z,9
2023-05-13T02:35:59.329Z,10
2023-05-13T02:37:06.570Z,10
2023-05-13T02:38:13.626Z,10
2023-05-13T02:39:28.417Z,9
2023-05-13T02:40:39.944Z,9
2023-05-13T02:41:47.010Z,9
2023-05-13T02:43:03.501Z,9
2023-05-13T02:44:18.604Z,9
2023-05-13T02:45:34.900Z,9
2023-05-13T02:46:46.169Z,9
2023-05-13T02:48:01.910Z,10
2023-05-13T02:49:08.851Z,9
2023-05-13T02:50:18.458Z,9
2023-05-13T02:51:33.618Z,9
2023-05-13T02:52:43.299Z,9
2023-05-13T02:53:53.286Z,10
2023-05-13T02:55:10.678Z,9
2023-05-13T02:56:17.759Z,9
2023-05-13T02:57:25.216Z,9
2023-05-13T02:58:39.334Z,10
2023-05-13T02:59:46.409Z,9
2023-05-13T03:00:53.472Z,9
2023-05-13T03:02:06.775Z,9
2023-05-13T03:03:18.561Z,9
2023-05-13T03:04:28.631Z,9
2023-05-13T03:05:38.418Z,9
2023-05-13T03:06:45.413Z,9
2023-05-13T03:07:52.431Z,9
2023-05-13T03:08:59.488Z,9
2023-05-13T03:10:08.351Z,9
2023-05-13T03:11:35.028Z,9
2023-05-13T03:12:42.320Z,9
2023-05-13T03:13:49.906Z,9
2023-05-13T03:15:10.048Z,10
2023-05-13T03:16:20.819Z,9
2023-05-13T03:17:28.031Z,10
2023-05-13T03:18:51.801Z,10
2023-05-13T03:20:06.175Z,10
2023-05-13T03:21:13.513Z,10
2023-05-13T03:22:23.593Z,10
2023-05-13T03:23:31.394Z,11
2023-05-13T03:24:39.051Z,11
2023-05-13T03:25:57.030Z,10
2023-05-13T03:27:13.834Z,10
2023-05-13T03:28:30.913Z,10
2023-05-13T03:29:50.611Z,10
2023-05-13T03:31:01.178Z,11
2023-05-13T03:32:08.177Z,11
2023-05-13T03:33:21.433Z,10
2023-05-13T03:34:28.757Z,11
2023-05-13T03:35:36.347Z,10
2023-05-13T03:36:43.320Z,9
2023-05-13T03:37:53.247Z,10
2023-05-13T03:39:00.668Z,10
2023-05-13T03:40:07.757Z,10
2023-05-13T03:41:14.920Z,10
2023-05-13T03:42:22.042Z,10
2023-05-13T03:43:29.113Z,11
2023-05-13T03:44:36.452Z,10
2023-05-13T03:45:43.532Z,9
2023-05-13T03:46:53.728Z,9
2023-05-13T03:48:00.762Z,9
2023-05-13T03:49:10.646Z,9
2023-05-13T03:50:17.700Z,9
2023-05-13T03:51:25.608Z,9
2023-05-13T03:52:32.553Z,9
2023-05-13T03:53:41.760Z,10
2023-05-13T03:54:48.757Z,10
2023-05-13T03:56:06.702Z,10
2023-05-13T03:57:14.198Z,9
2023-05-13T03:58:33.251Z,9
2023-05-13T03:59:48.111Z,10
2023-05-13T04:00:55.643Z,9
2023-05-13T04:02:03.219Z,10
2023-05-13T04:03:10.254Z,10
2023-05-13T04:04:20.882Z,10
2023-05-13T04:05:28.091Z,11
2023-05-13T04:06:42.264Z,10
2023-05-13T04:07:57.743Z,10
2023-05-13T04:09:04.756Z,11
2023-05-13T04:10:18.543Z,10
2023-05-13T04:11:21.971Z,11
2023-05-13T04:12:29.079Z,11
2023-05-13T04:13:36.519Z,11
2023-05-13T04:14:43.767Z,10
2023-05-13T04:16:00.040Z,10
2023-05-13T04:17:12.860Z,10
2023-05-13T04:18:33.354Z,11
2023-05-13T04:19:45.696Z,10
2023-05-13T04:20:52.653Z,11
2023-05-13T04:21:59.805Z,10
2023-05-13T04:23:13.206Z,10
2023-05-13T04:24:20.185Z,11
2023-05-13T04:25:36.621Z,10
2023-05-13T04:26:53.032Z,10
2023-05-13T04:28:09.702Z,10
2023-05-13T04:29:27.459Z,10
2023-05-13T04:30:49.639Z,11
2023-05-13T04:31:57.431Z,10
2023-05-13T04:33:22.311Z,11
2023-05-13T04:34:51.090Z,11
2023-05-13T04:36:09.975Z,11
2023-05-13T04:37:19.429Z,10
2023-05-13T04:38:26.404Z,11
2023-05-13T04:39:34.115Z,11
2023-05-13T04:40:56.593Z,11
2023-05-13T04:42:10.740Z,12
2023-05-13T04:43:18.026Z,12
2023-05-13T04:44:36.498Z,12
2023-05-13T04:45:43.562Z,12
2023-05-13T04:46:56.538Z,11
2023-05-13T04:48:13.978Z,12
2023-05-13T04:49:21.051Z,11
2023-05-13T04:50:28.344Z,11
2023-05-13T04:51:35.394Z,11
2023-05-13T04:52:49.057Z,11
2023-05-13T04:53:59.050Z,11
2023-05-13T04:55:06.110Z,10
2023-05-13T04:56:17.888Z,12
2023-05-13T04:57:28.880Z,11
2023-05-13T04:58:35.887Z,11
2023-05-13T04:59:42.994Z,12
2023-05-13T05:01:08.246Z,11
2023-05-13T05:02:15.329Z,11
2023-05-13T05:03:22.683Z,11
2023-05-13T05:04:34.804Z,11
2023-05-13T05:05:42.226Z,11
2023-05-13T05:06:51.984Z,12
2023-05-13T05:07:59.151Z,10
2023-05-13T05:09:06.240Z,11
2023-05-13T05:10:14.042Z,11
2023-05-13T05:11:21.088Z,11
2023-05-13T05:12:28.779Z,11
2023-05-13T05:13:35.826Z,10
2023-05-13T05:14:42.791Z,11
2023-05-13T05:15:49.975Z,11
2023-05-13T05:16:56.942Z,10
2023-05-13T05:18:03.967Z,10
2023-05-13T05:19:11.037Z,11
2023-05-13T05:20:21.118Z,10
2023-05-13T05:21:28.071Z,11
2023-05-13T05:22:35.244Z,10
2023-05-13T05:23:42.267Z,10
2023-05-13T05:24:55.462Z,10
2023-05-13T05:26:10.878Z,11
2023-05-13T05:27:09.621Z,11
2023-05-13T05:28:19.492Z,11
2023-05-13T05:29:26.966Z,11
2023-05-13T05:30:33.982Z,11
2023-05-13T05:31:41.042Z,11
2023-05-13T05:33:03.827Z,11
2023-05-13T05:34:20.843Z,11
2023-05-13T05:35:34.780Z,11
2023-05-13T05:36:52.617Z,10
2023-05-13T05:38:24.220Z,11
2023-05-13T05:39:44.295Z,11
2023-05-13T05:41:01.955Z,11
2023-05-13T05:42:10.933Z,10
2023-05-13T05:43:17.986Z,11
2023-05-13T05:44:25.267Z,11
2023-05-13T05:45:35.160Z,11
2023-05-13T05:46:50.183Z,11
2023-05-13T05:48:02.963Z,11
2023-05-13T05:49:16.231Z,10
2023-05-13T05:50:26.428Z,10
2023-05-13T05:51:40.364Z,12
2023-05-13T05:52:55.519Z,11
2023-05-13T05:54:08.625Z,10
2023-05-13T05:55:17.638Z,10
2023-05-13T05:56:43.828Z,10
2023-05-13T05:57:56.462Z,10
2023-05-13T05:59:04.115Z,11
2023-05-13T06:00:22.609Z,10
2023-05-13T06:01:29.849Z,10
2023-05-13T06:02:36.940Z,10
2023-05-13T06:03:43.923Z,10
2023-05-13T06:04:50.969Z,11
2023-05-13T06:06:02.838Z,11
2023-05-13T06:07:10.141Z,9
2023-05-13T06:08:17.737Z,9
2023-05-13T06:09:27.693Z,10
2023-05-13T06:12:15.942Z,10
2023-05-13T06:13:23.562Z,10
2023-05-13T06:14:33.632Z,10
2023-05-13T06:15:46.029Z,10
2023-05-13T06:16:54.325Z,10
2023-05-13T06:18:00.370Z,9
2023-05-13T06:19:07.468Z,11
2023-05-13T06:20:16.781Z,11
2023-05-13T06:21:26.799Z,10
2023-05-13T06:23:52.691Z,10
2023-05-13T06:24:59.766Z,10
2023-05-13T06:26:06.973Z,11
2023-05-13T06:27:16.677Z,10
2023-05-13T06:28:24.325Z,10
2023-05-13T06:29:34.048Z,9
2023-05-13T06:30:44.515Z,9
2023-05-13T06:31:52.075Z,8
2023-05-13T06:33:01.894Z,8
2023-05-13T06:34:20.480Z,9
2023-05-13T06:35:27.852Z,9
2023-05-13T06:36:35.723Z,10
2023-05-13T06:37:44.250Z,10
2023-05-13T06:38:54.405Z,10
2023-05-13T06:40:01.499Z,9
2023-05-13T06:41:11.549Z,9
2023-05-13T06:42:32.318Z,9
2023-05-13T06:43:42.345Z,9
2023-05-13T06:44:59.350Z,9
2023-05-13T06:46:15.458Z,9
2023-05-13T06:47:25.303Z,10
2023-05-13T06:48:33.198Z,8
2023-05-13T06:49:40.590Z,8
2023-05-13T06:50:47.667Z,9
2023-05-13T06:51:54.694Z,9
2023-05-13T06:53:01.798Z,10
2023-05-13T06:54:09.768Z,9
2023-05-13T06:55:33.530Z,9
2023-05-13T06:56:51.375Z,9
2023-05-13T06:58:01.430Z,8
2023-05-13T06:59:08.594Z,8
2023-05-13T07:00:15.598Z,7
2023-05-13T07:01:22.843Z,8
2023-05-13T07:02:38.211Z,9
2023-05-13T07:03:50.269Z,8
2023-05-13T07:04:57.659Z,9
2023-05-13T07:06:04.736Z,9
2023-05-13T07:07:14.695Z,9
2023-05-13T07:08:24.666Z,9
2023-05-13T07:09:32.679Z,9
2023-05-13T07:10:44.522Z,9
2023-05-13T07:12:07.341Z,8
2023-05-13T07:13:15.115Z,9
2023-05-13T07:14:22.516Z,9
2023-05-13T07:15:29.549Z,9
2023-05-13T07:16:50.403Z,9
2023-05-13T07:17:57.646Z,9
2023-05-13T07:19:05.771Z,9
2023-05-13T07:20:17.922Z,9
2023-05-13T07:21:25.518Z,8
2023-05-13T07:22:33.467Z,8
2023-05-13T07:23:41.567Z,8
2023-05-13T07:24:47.893Z,8
2023-05-13T07:25:54.909Z,7
2023-05-13T07:27:13.690Z,7
2023-05-13T07:28:21.059Z,6
2023-05-13T07:29:41.138Z,6
2023-05-13T07:30:48.395Z,6
2023-05-13T07:32:02.855Z,6
2023-05-13T07:33:19.721Z,6
2023-05-13T07:34:30.361Z,6
2023-05-13T07:36:03.198Z,6
2023-05-13T07:37:19.619Z,6
2023-05-13T07:38:27.120Z,6
2023-05-13T07:39:44.172Z,5
2023-05-13T07:40:58.154Z,6
2023-05-13T07:42:10.006Z,6
2023-05-13T07:43:39.162Z,6
2023-05-13T07:44:48.840Z,6
2023-05-13T07:46:09.901Z,6
2023-05-13T07:47:19.460Z,6
2023-05-13T07:48:38.507Z,5
2023-05-13T07:49:49.896Z,6
2023-05-13T07:51:05.036Z,6
2023-05-13T07:52:18.094Z,6
2023-05-13T07:53:25.725Z,6
2023-05-13T07:54:32.755Z,6
2023-05-13T07:56:00.048Z,5
2023-05-13T07:57:15.394Z,6
2023-05-13T07:58:28.330Z,6
2023-05-13T07:59:39.009Z,5
2023-05-13T08:00:52.334Z,5
2023-05-13T08:02:02.282Z,5
2023-05-13T08:03:23.844Z,5
2023-05-13T08:04:46.789Z,5
2023-05-13T08:05:59.222Z,4
2023-05-13T08:07:06.557Z,4
2023-05-13T08:08:14.175Z,3
2023-05-13T08:09:21.476Z,2
2023-05-13T08:10:30.531Z,3
2023-05-13T08:11:38.920Z,3
2023-05-13T08:12:50.585Z,3
2023-05-13T08:14:05.153Z,3
2023-05-13T08:15:12.766Z,3
2023-05-13T08:16:21.942Z,3
2023-05-13T08:17:32.765Z,3
2023-05-13T08:18:41.982Z,2
2023-05-13T08:19:58.928Z,3
2023-05-13T08:21:09.539Z,2
2023-05-13T08:22:18.933Z,3
2023-05-13T08:23:45.682Z,3
2023-05-13T08:24:57.007Z,3
2023-05-13T08:26:14.842Z,2
2023-05-13T08:27:36.663Z,3
2023-05-13T08:28:46.812Z,3
2023-05-13T08:30:01.302Z,3
2023-05-13T08:31:09.245Z,3
2023-05-13T08:32:19.498Z,3
2023-05-13T08:33:29.140Z,3
2023-05-13T08:34:36.194Z,3
2023-05-13T08:35:53.666Z,3
2023-05-13T08:37:01.052Z,3
2023-05-13T08:38:08.148Z,2
2023-05-13T08:39:15.455Z,2
2023-05-13T08:40:22.726Z,2
2023-05-13T08:41:33.743Z,3
2023-05-13T08:42:40.855Z,2
2023-05-13T08:43:47.866Z,2
2023-05-13T08:44:54.914Z,2
2023-05-13T08:46:08.006Z,2
2023-05-13T08:47:20.924Z,2
2023-05-13T08:48:31.081Z,2
2023-05-13T08:49:38.284Z,2
2023-05-13T08:50:45.356Z,2
2023-05-13T08:51:52.388Z,2
2023-05-13T08:52:59.561Z,2
2023-05-13T08:54:07.439Z,2
2023-05-13T08:55:15.101Z,2
2023-05-13T08:56:24.265Z,2
2023-05-13T08:57:35.514Z,3
2023-05-13T08:58:54.287Z,2
2023-05-13T09:00:02.123Z,2
2023-05-13T09:01:09.521Z,2
2023-05-13T09:02:29.965Z,2
2023-05-13T09:03:37.367Z,2
2023-05-13T09:04:48.262Z,2
2023-05-13T09:05:55.205Z,2
2023-05-13T09:07:18.443Z,2
2023-05-13T09:08:37.610Z,2
2023-05-13T09:09:46.756Z,2
2023-05-13T09:10:54.539Z,2
2023-05-13T09:12:07.059Z,2
2023-05-13T09:13:18.170Z,2
2023-05-13T09:14:28.765Z,2
2023-05-13T09:15:54.449Z,2
2023-05-13T09:17:01.320Z,2
2023-05-13T09:18:18.957Z,2
2023-05-13T09:19:25.458Z,2
2023-05-13T09:20:44.467Z,3
2023-05-13T09:21:56.243Z,2
2023-05-13T09:23:11.420Z,2
2023-05-13T09:24:21.261Z,2
2023-05-13T09:25:28.763Z,2
2023-05-13T09:26:37.024Z,2
2023-05-13T09:27:43.935Z,2
2023-05-13T09:29:03.911Z,2
2023-05-13T09:30:20.252Z,3
2023-05-13T09:31:27.216Z,2
2023-05-13T09:32:37.332Z,2
2023-05-13T09:33:56.111Z,2
2023-05-13T09:35:17.521Z,2
2023-05-13T09:37:44.337Z,2
2023-05-13T09:39:01.729Z,2
2023-05-13T09:40:10.785Z,2
2023-05-13T09:41:26.342Z,2
2023-05-13T09:42:40.877Z,2
2023-05-13T09:43:59.704Z,2
2023-05-13T09:45:15.132Z,2
2023-05-13T09:46:35.392Z,2
2023-05-13T09:47:42.398Z,2
2023-05-13T09:48:49.741Z,2
2023-05-13T09:50:02.027Z,2
2023-05-13T09:51:12.615Z,2
2023-05-13T09:52:28.680Z,2
2023-05-13T09:53:45.779Z,2
2023-05-13T09:54:53.166Z,2
2023-05-13T09:56:06.697Z,2
2023-05-13T09:57:14.010Z,2
2023-05-13T09:58:21.851Z,2
2023-05-13T09:59:31.216Z,2
2023-05-13T10:00:39.279Z,2
2023-05-13T10:01:50.985Z,2
2023-05-13T10:03:02.098Z,2
2023-05-13T10:04:12.577Z,2
2023-05-13T10:05:20.481Z,2
2023-05-13T10:06:30.235Z,2
2023-05-13T10:07:40.251Z,2
2023-05-13T10:09:05.021Z,2
2023-05-13T10:10:23.458Z,2
2023-05-13T10:11:36.257Z,2
2023-05-13T10:12:48.383Z,2
2023-05-13T10:13:55.501Z,2
2023-05-13T10:15:02.404Z,2
2023-05-13T10:16:11.165Z,2
2023-05-13T10:17:19.107Z,2
2023-05-13T10:18:29.421Z,2
2023-05-13T10:19:36.234Z,2
2023-05-13T10:20:44.291Z,2
2023-05-13T10:21:59.941Z,2
2023-05-13T10:23:13.835Z,2
2023-05-13T10:24:25.775Z,2
2023-05-13T10:25:33.098Z,2
2023-05-13T10:26:49.818Z,2
2023-05-13T10:27:57.105Z,2
2023-05-13T10:29:04.153Z,2
2023-05-13T10:30:16.999Z,2
2023-05-13T10:31:35.226Z,2
2023-05-13T10:32:42.374Z,2
2023-05-13T10:33:49.272Z,2
2023-05-13T10:34:56.386Z,2
2023-05-13T10:36:13.450Z,2
2023-05-13T10:37:30.534Z,2
2023-05-13T10:38:47.607Z,2
2023-05-13T10:40:05.116Z,2
2023-05-13T10:41:19.702Z,2
2023-05-13T10:42:40.160Z,2
2023-05-13T10:43:47.145Z,2
2023-05-13T10:44:54.181Z,2
2023-05-13T10:46:04.671Z,2
2023-05-13T10:47:11.687Z,2
2023-05-13T10:48:18.715Z,2
2023-05-13T10:49:29.213Z,2
2023-05-13T10:50:36.199Z,2
2023-05-13T10:51:43.161Z,2
2023-05-13T10:52:54.301Z,2
2023-05-13T10:54:01.991Z,2
2023-05-13T10:55:10.205Z,2
2023-05-13T10:56:19.811Z,2
2023-05-13T10:57:27.227Z,2
2023-05-13T10:58:41.928Z,2
2023-05-13T10:59:50.078Z,2
2023-05-13T11:01:00.911Z,2
2023-05-13T11:02:22.599Z,2
2023-05-13T11:03:29.627Z,2
2023-05-13T11:04:36.465Z,2
2023-05-13T11:05:43.459Z,2
2023-05-13T11:06:53.386Z,2
2023-05-13T11:08:00.543Z,2
2023-05-13T11:09:07.751Z,2
2023-05-13T11:10:14.862Z,2
2023-05-13T11:11:26.980Z,2
2023-05-13T11:12:39.225Z,2
2023-05-13T11:13:50.467Z,2
2023-05-13T11:14:59.696Z,2
2023-05-13T11:16:07.590Z,2
2023-05-13T11:17:14.634Z,2
2023-05-13T11:18:24.721Z,2
2023-05-13T11:19:35.214Z,2
2023-05-13T11:20:51.969Z,2
2023-05-13T11:21:51.190Z,2
2023-05-13T11:23:03.541Z,2
2023-05-13T11:24:10.510Z,2
2023-05-13T11:25:17.566Z,2
2023-05-13T11:26:27.079Z,2
2023-05-13T11:27:39.660Z,2
2023-05-13T11:28:47.876Z,2
2023-05-13T11:29:58.039Z,2
2023-05-13T11:31:05.008Z,2
2023-05-13T11:32:19.658Z,2
2023-05-13T11:33:37.438Z,2
2023-05-13T11:34:54.768Z,2
2023-05-13T11:36:01.840Z,2
2023-05-13T11:37:11.072Z,2
2023-05-13T11:38:22.068Z,2
2023-05-13T11:39:31.396Z,2
2023-05-13T11:40:39.400Z,2
2023-05-13T11:41:47.099Z,2
2023-05-13T11:42:54.453Z,2
2023-05-13T11:44:01.739Z,2
2023-05-13T11:45:14.826Z,2
2023-05-13T11:46:25.100Z,2
2023-05-13T11:47:32.214Z,2
2023-05-13T11:48:42.755Z,2
2023-05-13T11:49:49.787Z,2
2023-05-13T11:50:57.002Z,2
2023-05-13T11:52:03.953Z,2
2023-05-13T11:53:13.480Z,2
2023-05-13T11:54:26.255Z,2
2023-05-13T11:55:33.169Z,2
2023-05-13T11:56:40.152Z,2
2023-05-13T11:57:49.213Z,2
2023-05-13T11:58:56.216Z,2
2023-05-13T12:00:13.308Z,2
2023-05-13T12:01:20.459Z,2
2023-05-13T12:02:27.548Z,2
2023-05-13T12:03:34.671Z,2
2023-05-13T12:04:41.834Z,2
2023-05-13T12:05:48.941Z,2
2023-05-13T12:06:55.900Z,2
2023-05-13T12:08:03.273Z,2
2023-05-13T12:09:13.117Z,2
2023-05-13T12:10:20.095Z,2
2023-05-13T12:11:30.742Z,2
2023-05-13T12:12:37.721Z,2
2023-05-13T12:13:47.903Z,3
2023-05-13T12:14:55.018Z,2
2023-05-13T12:16:02.185Z,2
2023-05-13T12:17:09.287Z,2
2023-05-13T12:18:20.374Z,2
2023-05-13T12:19:29.487Z,2
2023-05-13T12:20:36.826Z,2
2023-05-13T12:21:43.843Z,2
2023-05-13T12:22:51.204Z,2
2023-05-13T12:23:58.559Z,2
2023-05-13T12:25:05.606Z,2
2023-05-13T12:26:27.762Z,2
2023-05-13T12:27:35.604Z,2
2023-05-13T12:28:42.833Z,2
2023-05-13T12:29:53.688Z,2
2023-05-13T12:31:00.896Z,2
2023-05-13T12:32:07.928Z,2
2023-05-13T12:33:14.955Z,2
2023-05-13T12:34:27.121Z,2
2023-05-13T12:35:36.774Z,2
2023-05-13T12:36:43.892Z,2
2023-05-13T12:37:51.029Z,2
2023-05-13T12:39:01.359Z,2
2023-05-13T12:40:08.313Z,2
2023-05-13T12:41:15.492Z,2
2023-05-13T12:42:22.506Z,2
2023-05-13T12:43:29.643Z,2
2023-05-13T12:44:41.555Z,2
2023-05-13T12:45:48.578Z,2
2023-05-13T12:46:55.674Z,2
2023-05-13T12:48:03.642Z,2
2023-05-13T12:49:10.783Z,2
2023-05-13T12:50:18.244Z,2
2023-05-13T12:51:25.343Z,2
2023-05-13T12:52:35.838Z,2
2023-05-13T12:53:45.852Z,2
2023-05-13T12:54:52.940Z,2
2023-05-13T12:56:00.037Z,2
2023-05-13T12:57:07.428Z,2
2023-05-13T12:58:14.664Z,2
2023-05-13T12:59:23.601Z,2
2023-05-13T13:00:33.209Z,1
2023-05-13T13:01:41.869Z,2
2023-05-13T13:02:48.900Z,2
2023-05-13T13:03:58.598Z,2
2023-05-13T13:05:05.452Z,2
2023-05-13T13:06:14.025Z,2
2023-05-13T13:07:21.089Z,2
2023-05-13T13:08:29.959Z,2
2023-05-13T13:09:35.420Z,2
2023-05-13T13:10:42.606Z,2
2023-05-13T13:11:49.754Z,2
2023-05-13T13:12:56.909Z,2
2023-05-13T13:14:07.136Z,2
2023-05-13T13:15:14.356Z,2
2023-05-13T13:16:21.584Z,2
2023-05-13T13:17:28.595Z,2
2023-05-13T13:18:36.746Z,2
2023-05-13T13:19:43.683Z,2
2023-05-13T13:20:56.467Z,2
2023-05-13T13:22:03.821Z,2
2023-05-13T13:23:21.733Z,2
2023-05-13T13:24:28.793Z,2
2023-05-13T13:25:35.689Z,2
2023-05-13T13:26:42.756Z,2
2023-05-13T13:27:49.938Z,2
2023-05-13T13:28:57.003Z,2
2023-05-13T13:30:04.452Z,2
2023-05-13T13:31:11.654Z,2
2023-05-13T13:32:18.733Z,2
2023-05-13T13:33:25.869Z,2
2023-05-13T13:34:32.880Z,1
2023-05-13T13:35:41.379Z,2
2023-05-13T13:36:53.152Z,2
2023-05-13T13:38:00.216Z,2
2023-05-13T13:39:07.331Z,2
2023-05-13T13:40:14.465Z,2
2023-05-13T13:41:21.969Z,2
2023-05-13T13:42:43.047Z,2
2023-05-13T13:43:38.997Z,2
2023-05-13T13:44:46.059Z,2
2023-05-13T13:45:53.136Z,2
2023-05-13T13:47:00.099Z,2
2023-05-13T13:48:07.473Z,2
2023-05-13T13:49:22.984Z,2
2023-05-13T13:50:22.088Z,2
2023-05-13T13:51:28.922Z,2
2023-05-13T13:52:38.666Z,2
2023-05-13T13:53:46.335Z,2
2023-05-13T13:54:53.405Z,2
2023-05-13T13:56:00.508Z,2
2023-05-13T13:57:07.609Z,2
2023-05-13T13:58:15.395Z,2
2023-05-13T13:59:26.385Z,2
2023-05-13T14:00:33.461Z,1
2023-05-13T14:01:41.079Z,2
2023-05-13T14:02:48.627Z,2
2023-05-13T14:03:55.683Z,2
2023-05-13T14:05:12.739Z,2
2023-05-13T14:06:20.333Z,2
2023-05-13T14:07:27.483Z,2
2023-05-13T14:08:34.659Z,2
2023-05-13T14:09:41.767Z,2
2023-05-13T14:10:48.773Z,2
2023-05-13T14:11:55.838Z,2
2023-05-13T14:13:35.025Z,2
2023-05-13T14:14:41.991Z,2
2023-05-13T14:15:49.156Z,2
2023-05-13T14:16:56.181Z,2
2023-05-13T14:18:03.235Z,2
2023-05-13T14:19:10.298Z,2
2023-05-13T14:20:17.389Z,2
2023-05-13T14:21:28.153Z,2
2023-05-13T14:22:35.125Z,2
2023-05-13T14:23:42.191Z,2
2023-05-13T14:24:49.167Z,2
2023-05-13T14:25:56.206Z,2
2023-05-13T14:27:03.225Z,2
2023-05-13T14:28:10.294Z,2
2023-05-13T14:29:17.329Z,2
2023-05-13T14:30:24.565Z,2
2023-05-13T14:31:31.429Z,2
2023-05-13T14:32:38.387Z,2
2023-05-13T14:33:45.455Z,2
2023-05-13T14:34:52.471Z,2
2023-05-13T14:36:03.627Z,2
2023-05-13T14:37:10.696Z,2
2023-05-13T14:38:17.806Z,2
2023-05-13T14:39:24.857Z,2
2023-05-13T14:40:34.978Z,2
2023-05-13T14:41:42.022Z,2
2023-05-13T14:42:49.098Z,2
2023-05-13T14:43:56.035Z,2
2023-05-13T14:45:04.528Z,2
2023-05-13T14:46:11.668Z,2
2023-05-13T14:47:18.664Z,2
2023-05-13T14:48:25.712Z,2
2023-05-13T14:49:32.756Z,3
2023-05-13T14:50:41.818Z,3
2023-05-13T14:51:47.230Z,2
2023-05-13T14:52:54.223Z,3
2023-05-13T14:54:01.258Z,3
2023-05-13T14:55:12.611Z,2
2023-05-13T14:56:19.704Z,12
2023-05-13T14:57:26.779Z,6
2023-05-13T14:58:33.785Z,8
2023-05-13T14:59:40.845Z,12
2023-05-13T15:00:47.986Z,3
2023-05-13T15:01:55.148Z,2
2023-05-13T15:03:06.612Z,2
2023-05-13T15:04:13.636Z,6
2023-05-13T15:05:20.666Z,5
2023-05-13T15:06:27.735Z,3
2023-05-13T15:07:34.794Z,6
2023-05-13T15:08:41.846Z,6
2023-05-13T15:09:53.647Z,4
2023-05-13T15:11:00.774Z,3
2023-05-13T15:12:10.929Z,3
2023-05-13T15:13:18.002Z,3
2023-05-13T15:14:27.697Z,2
2023-05-13T15:15:34.834Z,2
2023-05-13T15:16:41.968Z,3
2023-05-13T15:17:49.127Z,3
2023-05-13T15:18:56.278Z,3
2023-05-13T15:20:05.030Z,2
2023-05-13T15:21:13.003Z,2
2023-05-13T15:22:20.047Z,2
2023-05-13T15:23:26.986Z,2
2023-05-13T15:24:37.044Z,2
2023-05-13T15:25:44.033Z,3
2023-05-13T15:26:51.168Z,2
2023-05-13T15:27:58.259Z,2
2023-05-13T15:29:05.246Z,2
2023-05-13T15:30:12.312Z,2
2023-05-13T15:31:19.405Z,2
2023-05-13T15:32:26.283Z,2
2023-05-13T15:33:33.433Z,2
2023-05-13T15:34:40.529Z,3
2023-05-13T15:35:50.338Z,2
2023-05-13T15:36:57.361Z,2
2023-05-13T15:38:04.336Z,2
2023-05-13T15:39:11.361Z,2
2023-05-13T15:40:20.932Z,2
2023-05-13T15:41:33.009Z,2
2023-05-13T15:42:40.053Z,2
2023-05-13T15:43:49.816Z,2
2023-05-13T15:44:57.900Z,2
2023-05-13T15:46:04.917Z,2
2023-05-13T15:47:12.091Z,2
2023-05-13T15:48:19.053Z,2
2023-05-13T15:49:26.070Z,2
2023-05-13T15:50:33.159Z,2
2023-05-13T15:51:45.093Z,2
2023-05-13T15:52:56.762Z,2
2023-05-13T15:54:08.976Z,2
2023-05-13T15:55:15.953Z,2
2023-05-13T15:56:22.897Z,2
2023-05-13T15:57:29.975Z,2
2023-05-13T15:58:36.984Z,2
2023-05-13T15:59:44.037Z,2
2023-05-13T16:00:56.593Z,2
2023-05-13T16:02:04.851Z,2
2023-05-13T16:03:11.736Z,2
2023-05-13T16:04:18.788Z,3
2023-05-13T16:05:25.714Z,3
2023-05-13T16:06:32.882Z,3
2023-05-13T16:07:47.763Z,3
2023-05-13T16:08:56.495Z,3
2023-05-13T16:10:02.602Z,3
2023-05-13T16:11:09.714Z,2
2023-05-13T16:12:16.673Z,2
2023-05-13T16:13:23.656Z,2
2023-05-13T16:14:30.626Z,2
2023-05-13T16:15:37.602Z,3
2023-05-13T16:16:44.687Z,3
2023-05-13T16:17:51.715Z,2
2023-05-13T16:18:58.717Z,2
2023-05-13T16:20:05.746Z,2
2023-05-13T16:21:17.315Z,2
2023-05-13T16:22:29.592Z,3
2023-05-13T16:23:36.592Z,3
2023-05-13T16:24:43.545Z,3
2023-05-13T16:25:50.617Z,3
2023-05-13T16:26:57.601Z,3
2023-05-13T16:28:04.612Z,3
2023-05-13T16:29:11.756Z,3
2023-05-13T16:30:18.818Z,3
2023-05-13T16:31:25.860Z,3
2023-05-13T16:32:32.916Z,3
2023-05-13T16:33:43.115Z,2
2023-05-13T16:34:50.098Z,3
2023-05-13T16:35:58.019Z,3
2023-05-13T16:37:05.203Z,3
2023-05-13T16:38:12.112Z,2
2023-05-13T16:39:19.173Z,3
2023-05-13T16:40:27.488Z,3
2023-05-13T16:41:39.258Z,3
2023-05-13T16:42:49.004Z,3
2023-05-13T16:44:00.263Z,3
2023-05-13T16:45:10.806Z,3
2023-05-13T16:46:25.308Z,3
2023-05-13T16:47:32.448Z,4
2023-05-13T16:48:39.584Z,3
2023-05-13T16:49:46.568Z,2
2023-05-13T16:50:57.689Z,2
2023-05-13T16:52:04.715Z,2
2023-05-13T16:53:14.783Z,3
2023-05-13T16:54:21.795Z,3
2023-05-13T16:55:28.959Z,2
2023-05-13T16:56:35.997Z,2
2023-05-13T16:57:43.022Z,2
2023-05-13T16:58:50.063Z,2
2023-05-13T16:59:57.084Z,2
2023-05-13T17:01:04.258Z,2
2023-05-13T17:02:11.344Z,2
2023-05-13T17:03:23.877Z,2
2023-05-13T17:04:31.684Z,2
2023-05-13T17:05:39.412Z,3
2023-05-13T17:06:46.465Z,2
2023-05-13T17:07:53.514Z,3
2023-05-13T17:09:00.954Z,3
2023-05-13T17:10:07.978Z,3
2023-05-13T17:11:14.961Z,3